Time;durP1;ratioP1;P1;durP2;ratioP2;P2;SDS_P1;SDS_P2;PMS_P1;PMS_P2;Temp;Humidity;BMP_temperature;BMP_pressure;BME280_temperature;BME280_humidity;BME280_pressure;Samples;Min_cycle;Max_cycle;Signal;HPM_P1;HPM_P2
2023/12/03 00:00:53;;;;;;;17.85;10.30;;;-1.80;72.20;;;;;;4994203;28;20026;-77
2023/12/03 00:03:20;;;;;;;15.73;9.50;;;-1.80;72.40;;;;;;4994220;28;20022;-80
2023/12/03 00:05:45;;;;;;;19.33;9.80;;;-1.80;71.80;;;;;;4994489;28;20371;-79
2023/12/03 00:08:11;;;;;;;19.40;9.95;;;-1.80;72.10;;;;;;4993974;28;20018;-74
2023/12/03 00:10:37;;;;;;;16.35;8.73;;;-1.80;72.10;;;;;;4993680;28;20471;-73
2023/12/03 00:13:02;;;;;;;16.70;9.13;;;-1.80;72.10;;;;;;4993806;28;20026;-74
2023/12/03 00:15:28;;;;;;;17.75;9.85;;;-1.80;72.30;;;;;;4993820;28;20026;-79
2023/12/03 00:17:53;;;;;;;16.13;10.05;;;-1.70;72.30;;;;;;4993905;28;20483;-78
2023/12/03 00:20:19;;;;;;;17.00;10.07;;;-1.70;71.60;;;;;;4993833;28;20030;-77
2023/12/03 00:22:46;;;;;;;18.45;10.40;;;-1.70;71.40;;;;;;4993643;28;20034;-79
2023/12/03 00:25:11;;;;;;;18.33;10.10;;;-1.70;71.60;;;;;;4993757;28;20026;-78
2023/12/03 00:27:37;;;;;;;17.52;10.70;;;-1.70;71.20;;;;;;4994125;28;20084;-77
2023/12/03 00:30:03;;;;;;;18.05;10.98;;;-1.70;71.10;;;;;;4993999;28;20065;-78
2023/12/03 00:32:28;;;;;;;16.98;9.48;;;-1.70;71.20;;;;;;4997880;28;20058;-79
2023/12/03 00:34:54;;;;;;;16.13;9.55;;;-1.70;70.70;;;;;;5005234;28;20125;-79
2023/12/03 00:37:19;;;;;;;18.05;10.93;;;-1.80;70.50;;;;;;4996727;28;20074;-80
2023/12/03 00:39:45;;;;;;;16.88;10.00;;;-1.90;71.10;;;;;;4998022;28;20030;-80
2023/12/03 00:42:10;;;;;;;16.60;10.10;;;-1.90;71.60;;;;;;4999051;28;20030;-77
2023/12/03 00:44:36;;;;;;;17.23;10.13;;;-2.00;71.70;;;;;;4994603;28;20018;-79
2023/12/03 00:47:01;;;;;;;17.90;9.88;;;-2.00;72.10;;;;;;4993487;28;20030;-77
2023/12/03 00:49:27;;;;;;;17.17;9.98;;;-2.10;72.50;;;;;;4993280;28;20033;-78
2023/12/03 00:51:53;;;;;;;17.80;10.55;;;-2.20;73.00;;;;;;4976061;28;20042;-76
2023/12/03 00:54:18;;;;;;;16.70;9.32;;;-2.30;73.70;;;;;;4993488;28;20352;-78
2023/12/03 00:56:44;;;;;;;18.52;9.85;;;-2.20;72.70;;;;;;4993185;28;20073;-76
2023/12/03 00:59:10;;;;;;;16.23;8.68;;;-2.20;72.00;;;;;;4993444;28;20023;-77
2023/12/03 01:01:36;;;;;;;15.38;8.48;;;-2.20;72.20;;;;;;4993418;28;20105;-79
2023/12/03 01:04:01;;;;;;;17.65;9.30;;;-2.20;71.00;;;;;;4993174;28;20112;-77
2023/12/03 01:06:27;;;;;;;18.42;9.30;;;-2.30;70.90;;;;;;4993329;28;20034;-77
2023/12/03 01:08:53;;;;;;;17.83;9.75;;;-2.30;71.70;;;;;;4993266;28;20105;-78
2023/12/03 01:11:18;;;;;;;15.88;7.55;;;-2.30;71.40;;;;;;4993337;28;20105;-78
2023/12/03 01:13:44;;;;;;;15.35;8.45;;;-2.20;71.40;;;;;;4993348;28;20033;-77
2023/12/03 01:16:17;;;;;;;16.05;8.70;;;-2.20;71.20;;;;;;4993409;28;20138;-79
2023/12/03 01:18:43;;;;;;;14.57;7.55;;;-2.10;71.50;;;;;;4993399;28;20033;-82
2023/12/03 01:21:09;;;;;;;14.55;8.10;;;-2.10;71.50;;;;;;4994023;28;20494;-81
2023/12/03 01:23:34;;;;;;;14.88;8.80;;;-2.00;70.80;;;;;;4994525;28;20126;-82
2023/12/03 01:26:00;;;;;;;14.52;8.60;;;-2.00;70.00;;;;;;4997412;28;20034;-80
2023/12/03 01:28:25;;;;;;;14.80;8.85;;;-2.10;68.60;;;;;;4997378;28;20098;-79
2023/12/03 01:30:51;;;;;;;14.05;8.55;;;-2.10;68.70;;;;;;4997110;28;20101;-79
2023/12/03 01:33:16;;;;;;;14.07;8.40;;;-2.20;68.40;;;;;;4997415;28;20019;-78
2023/12/03 01:35:42;;;;;;;15.23;8.70;;;-2.20;68.80;;;;;;4996907;28;20038;-78
2023/12/03 01:38:07;;;;;;;18.63;9.27;;;-2.30;70.20;;;;;;4997163;28;20022;-83
2023/12/03 01:40:33;;;;;;;15.82;8.90;;;-2.20;70.80;;;;;;4997370;28;20029;-79
2023/12/03 01:42:59;;;;;;;17.60;8.82;;;-2.20;71.30;;;;;;4997587;28;20038;-85
2023/12/03 01:45:25;;;;;;;15.43;9.60;;;-2.00;72.00;;;;;;4979766;28;20038;-82
2023/12/03 01:47:51;;;;;;;20.08;11.23;;;-2.00;72.50;;;;;;4979528;28;20030;-83
2023/12/03 01:50:18;;;;;;;16.02;10.35;;;-1.90;72.80;;;;;;4979511;28;20026;-82
2023/12/03 01:52:43;;;;;;;19.27;11.20;;;-1.80;73.20;;;;;;4979405;28;20062;-77
2023/12/03 01:55:12;;;;;;;17.42;10.25;;;-1.80;72.90;;;;;;4979297;28;20080;-83
2023/12/03 01:57:38;;;;;;;19.30;10.90;;;-1.70;73.20;;;;;;4979558;28;20415;-82
2023/12/03 02:00:05;;;;;;;16.10;9.88;;;-1.70;72.90;;;;;;4979562;28;20027;-81
2023/12/03 02:02:31;;;;;;;17.85;9.75;;;-1.70;72.70;;;;;;4963443;28;20030;-83
2023/12/03 02:04:57;;;;;;;19.77;10.48;;;-1.60;72.60;;;;;;4979380;28;20080;-81
2023/12/03 02:07:22;;;;;;;20.92;10.27;;;-1.70;72.50;;;;;;4979255;28;20375;-75
2023/12/03 02:09:48;;;;;;;20.30;11.18;;;-1.70;72.00;;;;;;4978678;28;20097;-78
2023/12/03 02:12:14;;;;;;;19.45;10.50;;;-1.80;71.80;;;;;;4996169;28;20081;-81
2023/12/03 02:14:40;;;;;;;18.55;10.88;;;-1.80;72.10;;;;;;4997003;28;20353;-76
2023/12/03 02:17:06;;;;;;;18.35;9.73;;;-1.80;72.10;;;;;;4996035;28;20037;-80
2023/12/03 02:19:31;;;;;;;18.70;10.90;;;-1.80;72.20;;;;;;4978769;28;20109;-76
2023/12/03 02:21:56;;;;;;;18.15;10.60;;;-1.80;71.80;;;;;;4996057;28;20034;-81
2023/12/03 02:24:22;;;;;;;22.63;11.20;;;-1.80;72.20;;;;;;4978605;28;20065;-80
2023/12/03 02:26:48;;;;;;;19.88;10.52;;;-1.70;72.20;;;;;;4978819;28;20029;-79
2023/12/03 02:29:13;;;;;;;18.65;9.98;;;-1.70;72.40;;;;;;4978668;28;20026;-81
2023/12/03 02:31:39;;;;;;;19.00;10.02;;;-1.70;72.60;;;;;;4974957;28;20050;-82
2023/12/03 02:34:09;;;;;;;18.88;11.10;;;-1.70;72.90;;;;;;4974761;28;20097;-80
2023/12/03 02:36:35;;;;;;;19.00;11.27;;;-1.70;72.30;;;;;;4975278;28;20395;-79
2023/12/03 02:39:01;;;;;;;17.92;11.20;;;-1.70;72.50;;;;;;4976198;28;20034;-79
2023/12/03 02:41:26;;;;;;;17.33;11.57;;;-1.80;72.70;;;;;;4976239;28;20039;-80
2023/12/03 02:43:52;;;;;;;18.13;11.63;;;-1.80;73.10;;;;;;4976133;28;20034;-80
2023/12/03 02:46:17;;;;;;;19.40;11.30;;;-1.80;73.40;;;;;;4976027;28;20109;-79
2023/12/03 02:48:43;;;;;;;16.67;11.32;;;-1.80;73.60;;;;;;4976164;28;20371;-76
2023/12/03 02:51:09;;;;;;;17.17;11.40;;;-1.90;73.80;;;;;;4976056;28;20082;-76
2023/12/03 02:53:36;;;;;;;18.45;11.18;;;-1.90;74.10;;;;;;4976695;28;20488;-78
2023/12/03 02:56:02;;;;;;;17.05;10.43;;;-1.90;74.30;;;;;;4975019;28;20039;-78
2023/12/03 02:58:28;;;;;;;21.85;11.50;;;-1.90;74.30;;;;;;4978461;28;20041;-78
2023/12/03 03:00:53;;;;;;;18.92;10.95;;;-2.00;74.30;;;;;;4974970;28;20031;-76
2023/12/03 03:03:19;;;;;;;20.98;12.52;;;-2.00;74.50;;;;;;4976250;28;20526;-77
2023/12/03 03:05:44;;;;;;;18.55;11.55;;;-2.10;74.80;;;;;;4975894;28;20061;-75
2023/12/03 03:08:10;;;;;;;21.27;11.70;;;-2.10;75.00;;;;;;4975650;28;20105;-74
2023/12/03 03:10:35;;;;;;;17.98;10.40;;;-2.20;75.10;;;;;;4975632;28;20027;-73
2023/12/03 03:13:01;;;;;;;17.02;10.73;;;-2.20;75.20;;;;;;4975684;28;20034;-74
2023/12/03 03:15:27;;;;;;;18.50;10.30;;;-2.20;75.20;;;;;;4974133;28;20023;-74
2023/12/03 03:17:52;;;;;;;18.38;10.70;;;-2.30;75.30;;;;;;4975360;28;20383;-73
2023/12/03 03:20:21;;;;;;;17.25;9.95;;;-2.40;75.40;;;;;;4974394;28;20487;-75
2023/12/03 03:22:49;;;;;;;16.42;8.85;;;-2.40;75.20;;;;;;4975546;28;20035;-79
2023/12/03 03:25:15;;;;;;;15.07;8.57;;;-2.50;75.30;;;;;;4974163;28;20030;-76
2023/12/03 03:27:41;;;;;;;15.02;8.32;;;-2.60;75.10;;;;;;4975247;28;20554;-74
2023/12/03 03:30:07;;;;;;;12.45;7.13;;;-2.70;74.60;;;;;;4975305;28;20027;-80
2023/12/03 03:32:33;;;;;;;15.00;8.40;;;-2.80;74.60;;;;;;4974017;28;20050;-81
2023/12/03 03:34:59;;;;;;;13.48;7.72;;;-2.80;74.80;;;;;;4974347;28;20087;-79
2023/12/03 03:37:24;;;;;;;14.10;8.88;;;-2.90;74.90;;;;;;4974062;28;20093;-79
2023/12/03 03:39:50;;;;;;;12.95;7.72;;;-2.90;75.00;;;;;;4974169;28;20121;-79
2023/12/03 03:42:15;;;;;;;11.50;7.50;;;-3.00;74.90;;;;;;4974126;28;20031;-79
2023/12/03 03:44:41;;;;;;;11.18;6.95;;;-3.00;74.50;;;;;;4973912;28;20023;-79
2023/12/03 03:47:07;;;;;;;12.02;6.53;;;-3.10;74.30;;;;;;4973123;28;20054;-79
2023/12/03 03:49:33;;;;;;;13.48;6.47;;;-3.10;74.40;;;;;;4973882;28;20089;-78
2023/12/03 03:51:58;;;;;;;11.27;6.28;;;-3.10;74.40;;;;;;4973732;28;20027;-75
2023/12/03 03:54:24;;;;;;;11.88;7.13;;;-3.20;74.10;;;;;;4973451;28;20124;-79
2023/12/03 03:56:49;;;;;;;12.50;6.78;;;-3.30;74.40;;;;;;4973698;28;20047;-79
2023/12/03 03:59:15;;;;;;;13.00;6.82;;;-3.40;73.50;;;;;;4973801;28;20022;-78
2023/12/03 04:01:44;;;;;;;11.07;6.53;;;-3.60;73.50;;;;;;4973371;28;20025;-78
2023/12/03 04:04:10;;;;;;;10.75;6.50;;;-3.60;73.30;;;;;;4973380;28;20069;-80
2023/12/03 04:06:40;;;;;;;13.52;7.15;;;-3.70;74.10;;;;;;4973371;28;20100;-75
2023/12/03 04:09:06;;;;;;;14.07;6.90;;;-3.70;74.60;;;;;;4973310;28;20058;-81
2023/12/03 04:11:37;;;;;;;14.48;7.55;;;-3.70;74.90;;;;;;4973656;28;20023;-80
2023/12/03 04:14:03;;;;;;;12.70;6.70;;;-3.70;74.70;;;;;;4973633;28;20038;-80
2023/12/03 04:16:28;;;;;;;12.00;6.15;;;-3.70;74.20;;;;;;4973421;28;20034;-79
2023/12/03 04:18:54;;;;;;;11.00;6.13;;;-3.80;74.60;;;;;;4973619;28;20023;-79
2023/12/03 04:21:19;;;;;;;12.35;6.97;;;-3.80;73.80;;;;;;4973401;28;20026;-75
2023/12/03 04:23:45;;;;;;;15.30;7.28;;;-3.90;73.90;;;;;;4972863;28;20023;-79
2023/12/03 04:26:12;;;;;;;11.32;6.03;;;-3.90;73.70;;;;;;4973294;28;20383;-75
2023/12/03 04:28:41;;;;;;;13.05;6.88;;;-3.90;73.60;;;;;;4974293;28;20031;-79
2023/12/03 04:31:15;;;;;;;11.63;6.82;;;-4.00;73.30;;;;;;4972988;28;20039;-79
2023/12/03 04:33:41;;;;;;;11.32;5.95;;;-4.10;73.80;;;;;;4973193;28;20027;-80
2023/12/03 04:36:07;;;;;;;14.13;6.93;;;-4.20;74.10;;;;;;4973053;28;20098;-80
2023/12/03 04:38:33;;;;;;;11.30;5.65;;;-4.20;74.40;;;;;;4974134;28;20030;-79
2023/12/03 04:40:59;;;;;;;15.05;6.88;;;-4.20;74.50;;;;;;4974167;28;20486;-75
2023/12/03 04:43:24;;;;;;;13.50;6.32;;;-4.20;74.50;;;;;;4974101;28;20023;-81
2023/12/03 04:45:50;;;;;;;12.02;7.40;;;-4.30;74.60;;;;;;4974027;28;20117;-80
2023/12/03 04:48:15;;;;;;;14.05;6.65;;;-4.30;74.50;;;;;;4974033;28;20027;-81
2023/12/03 04:50:41;;;;;;;13.57;6.85;;;-4.30;74.40;;;;;;4973819;28;20027;-80
2023/12/03 04:53:07;;;;;;;11.80;6.18;;;-4.40;74.50;;;;;;4973719;28;20382;-81
2023/12/03 04:55:32;;;;;;;11.13;5.35;;;-4.30;74.70;;;;;;4973641;28;20030;-80
2023/12/03 04:57:58;;;;;;;12.20;6.65;;;-4.20;74.40;;;;;;4974556;28;20026;-80
2023/12/03 05:00:23;;;;;;;11.70;6.40;;;-4.30;74.30;;;;;;4977841;28;20110;-75
2023/12/03 05:02:49;;;;;;;12.55;6.35;;;-4.30;74.10;;;;;;4978026;28;20031;-80
2023/12/03 05:05:14;;;;;;;12.90;7.13;;;-4.40;74.10;;;;;;4977895;28;20039;-81
2023/12/03 05:07:40;;;;;;;12.88;6.88;;;-4.30;74.30;;;;;;4977890;28;20026;-81
2023/12/03 05:10:06;;;;;;;14.43;7.43;;;-4.40;74.00;;;;;;4977737;28;20031;-80
2023/12/03 05:12:32;;;;;;;12.18;6.35;;;-4.40;73.80;;;;;;4977637;28;20397;-80
2023/12/03 05:14:57;;;;;;;11.15;6.03;;;-4.40;73.70;;;;;;4976334;28;20030;-77
2023/12/03 05:17:23;;;;;;;9.52;5.35;;;-4.40;74.70;;;;;;4976185;28;20073;-78
2023/12/03 05:19:48;;;;;;;9.38;5.50;;;-4.40;73.90;;;;;;4977569;28;20026;-79
2023/12/03 05:22:14;;;;;;;9.85;5.53;;;-4.50;73.60;;;;;;4977491;28;20019;-79
2023/12/03 05:24:39;;;;;;;13.95;6.82;;;-4.50;73.60;;;;;;4977561;28;20031;-78
2023/12/03 05:27:05;;;;;;;13.45;7.35;;;-4.50;73.50;;;;;;4977494;28;20051;-78
2023/12/03 05:29:30;;;;;;;13.93;6.53;;;-4.60;74.00;;;;;;4975967;28;20023;-78
2023/12/03 05:31:56;;;;;;;15.00;6.68;;;-4.50;73.30;;;;;;4987236;28;20054;-77
2023/12/03 05:34:21;;;;;;;13.73;6.45;;;-4.50;73.20;;;;;;4996857;28;20033;-78
2023/12/03 05:36:47;;;;;;;12.50;6.18;;;-4.70;73.20;;;;;;4996874;28;20114;-78
2023/12/03 05:39:12;;;;;;;15.13;6.53;;;-4.90;73.60;;;;;;4984016;28;20029;-77
2023/12/03 05:41:39;;;;;;;14.88;7.20;;;-4.90;74.20;;;;;;4981986;28;20030;-78
2023/12/03 05:44:05;;;;;;;12.38;6.70;;;-4.90;74.20;;;;;;4996673;28;20029;-78
2023/12/03 05:46:30;;;;;;;13.48;6.57;;;-4.90;74.10;;;;;;4979168;28;20026;-77
2023/12/03 05:48:56;;;;;;;12.98;6.35;;;-5.00;73.80;;;;;;4979183;28;20073;-76
2023/12/03 05:51:21;;;;;;;12.27;6.15;;;-4.90;73.70;;;;;;4996492;28;20027;-77
2023/12/03 05:53:47;;;;;;;12.15;7.00;;;-5.00;73.70;;;;;;4996268;28;20019;-77
2023/12/03 05:56:12;;;;;;;14.80;7.45;;;-5.10;73.80;;;;;;4996182;28;20041;-76
2023/12/03 05:58:38;;;;;;;15.43;7.95;;;-5.20;74.20;;;;;;4996454;28;20015;-77
2023/12/03 06:01:03;;;;;;;15.85;6.95;;;-5.30;74.70;;;;;;4996448;28;20031;-76
2023/12/03 06:03:29;;;;;;;14.85;8.13;;;-5.40;75.10;;;;;;4978808;28;20027;-76
2023/12/03 06:05:54;;;;;;;15.93;7.25;;;-5.40;75.30;;;;;;4996214;28;20032;-75
2023/12/03 06:08:20;;;;;;;14.45;6.68;;;-5.50;76.30;;;;;;4996167;28;20134;-78
2023/12/03 06:10:46;;;;;;;13.10;6.10;;;-5.50;75.70;;;;;;4995638;28;20379;-77
2023/12/03 06:13:11;;;;;;;14.23;7.13;;;-5.40;75.70;;;;;;4996218;28;20105;-77
2023/12/03 06:15:38;;;;;;;11.90;6.68;;;-5.50;76.00;;;;;;4996004;28;20438;-78
2023/12/03 06:18:04;;;;;;;18.17;7.88;;;-5.60;75.80;;;;;;4996108;28;20041;-77
2023/12/03 06:20:29;;;;;;;18.63;8.35;;;-5.60;75.70;;;;;;4996272;28;20022;-77
2023/12/03 06:22:55;;;;;;;18.92;7.90;;;-5.50;75.50;;;;;;4995994;28;20423;-77
2023/12/03 06:25:20;;;;;;;17.05;8.48;;;-5.50;75.30;;;;;;4995940;28;20030;-76
2023/12/03 06:27:46;;;;;;;16.45;7.50;;;-5.50;74.80;;;;;;4995842;28;20081;-77
2023/12/03 06:30:12;;;;;;;19.50;8.77;;;-5.60;74.80;;;;;;4995807;28;20022;-78
2023/12/03 06:32:37;;;;;;;17.45;7.35;;;-5.60;74.80;;;;;;4995714;28;20101;-78
2023/12/03 06:35:04;;;;;;;22.27;10.20;;;-5.70;74.90;;;;;;4995679;28;20035;-76
2023/12/03 06:37:29;;;;;;;31.73;17.42;;;-5.80;75.20;;;;;;4995630;28;20026;-77
2023/12/03 06:39:55;;;;;;;35.22;25.63;;;-5.90;75.70;;;;;;4995824;28;20033;-78
2023/12/03 06:42:21;;;;;;;22.67;12.35;;;-5.90;75.60;;;;;;4978197;28;20507;-77
2023/12/03 06:44:46;;;;;;;18.77;8.63;;;-6.00;75.70;;;;;;4995469;28;20026;-78
2023/12/03 06:47:12;;;;;;;17.73;8.10;;;-6.00;75.90;;;;;;4995572;28;20038;-77
2023/12/03 06:49:37;;;;;;;17.20;8.95;;;-6.00;75.90;;;;;;4995456;28;20034;-78
2023/12/03 06:52:03;;;;;;;17.83;11.18;;;-5.90;75.80;;;;;;4995837;28;20403;-77
2023/12/03 06:54:29;;;;;;;18.67;8.82;;;-6.00;75.20;;;;;;4995517;28;20422;-77
2023/12/03 06:56:54;;;;;;;19.80;8.27;;;-6.00;75.00;;;;;;4995318;28;20045;-75
2023/12/03 06:59:20;;;;;;;16.17;8.55;;;-6.00;75.10;;;;;;4995384;28;20037;-74
2023/12/03 07:01:45;;;;;;;17.95;8.73;;;-6.10;75.10;;;;;;4995211;28;20034;-75
2023/12/03 07:04:11;;;;;;;19.92;9.95;;;-6.10;75.30;;;;;;4981180;28;20072;-76
2023/12/03 07:06:36;;;;;;;21.17;10.65;;;-6.00;75.60;;;;;;4994440;28;20084;-74
2023/12/03 07:09:02;;;;;;;27.08;11.13;;;-5.90;75.50;;;;;;4995110;28;20101;-74
2023/12/03 07:11:29;;;;;;;23.38;11.13;;;-5.90;75.00;;;;;;4996079;28;20026;-75
2023/12/03 07:13:55;;;;;;;19.83;10.07;;;-5.80;74.50;;;;;;4983083;28;20026;-76
2023/12/03 07:16:21;;;;;;;26.92;12.30;;;-5.90;74.80;;;;;;4978949;28;20062;-76
2023/12/03 07:18:46;;;;;;;25.20;13.68;;;-5.90;74.70;;;;;;5007483;28;20049;-79
2023/12/03 07:21:12;;;;;;;21.67;9.98;;;-5.90;74.70;;;;;;4981038;28;20077;-81
2023/12/03 07:23:37;;;;;;;30.48;13.95;;;-5.90;74.80;;;;;;4977907;28;20113;-78
2023/12/03 07:26:12;;;;;;;25.95;13.90;;;-5.90;74.70;;;;;;4994820;28;20026;-80
2023/12/03 07:28:38;;;;;;;42.95;20.02;;;-5.90;74.20;;;;;;4994742;28;20109;-80
2023/12/03 07:31:04;;;;;;;37.72;17.33;;;-5.90;73.90;;;;;;4994823;28;20533;-77
2023/12/03 07:33:30;;;;;;;26.73;13.13;;;-5.80;73.70;;;;;;4994299;28;20480;-77
2023/12/03 07:35:56;;;;;;;27.33;13.95;;;-5.90;73.30;;;;;;4994310;28;20479;-77
2023/12/03 07:38:22;;;;;;;25.70;11.52;;;-6.00;73.50;;;;;;4978974;28;20045;-77
2023/12/03 07:40:47;;;;;;;17.90;9.02;;;-5.90;73.70;;;;;;4977891;28;20022;-77
2023/12/03 07:43:13;;;;;;;18.83;9.60;;;-5.90;73.40;;;;;;4994142;28;20049;-74
2023/12/03 07:45:38;;;;;;;22.95;10.07;;;-5.80;73.10;;;;;;4994263;28;20019;-78
2023/12/03 07:48:04;;;;;;;19.20;9.68;;;-5.80;73.10;;;;;;4976711;28;20030;-78
2023/12/03 07:50:30;;;;;;;25.10;11.57;;;-5.80;73.10;;;;;;4994260;28;20536;-77
2023/12/03 07:52:55;;;;;;;42.88;17.58;;;-5.80;73.10;;;;;;4994101;28;20038;-79
2023/12/03 07:55:21;;;;;;;43.33;17.35;;;-5.80;72.90;;;;;;4976717;28;20475;-76
2023/12/03 07:57:46;;;;;;;46.58;18.58;;;-5.70;73.10;;;;;;4994262;28;20113;-78
2023/12/03 08:00:12;;;;;;;23.95;11.95;;;-5.60;73.00;;;;;;4976735;28;20026;-77
2023/12/03 08:02:38;;;;;;;22.67;11.00;;;-5.50;72.70;;;;;;4976593;28;20027;-78
2023/12/03 08:05:04;;;;;;;26.63;12.65;;;-5.40;72.40;;;;;;4976811;28;20057;-78
2023/12/03 08:07:30;;;;;;;23.77;10.43;;;-5.40;71.80;;;;;;4993306;28;20368;-78
2023/12/03 08:09:55;;;;;;;21.42;9.65;;;-5.30;72.00;;;;;;4976338;28;20046;-79
2023/12/03 08:12:21;;;;;;;20.65;10.23;;;-5.30;72.00;;;;;;4977734;28;20026;-79
2023/12/03 08:14:46;;;;;;;18.92;9.52;;;-5.20;72.90;;;;;;4995285;28;20034;-79
2023/12/03 08:17:12;;;;;;;31.20;14.05;;;-4.90;72.10;;;;;;4994172;28;20049;-79
2023/12/03 08:19:39;;;;;;;27.75;13.48;;;-4.70;72.10;;;;;;4994058;28;20031;-78
2023/12/03 08:22:06;;;;;;;34.00;16.02;;;-4.40;72.10;;;;;;4993903;28;20481;-77
2023/12/03 08:24:33;;;;;;;34.53;15.18;;;-4.20;71.20;;;;;;4976305;28;20026;-77
2023/12/03 08:26:58;;;;;;;39.50;19.17;;;-3.80;71.10;;;;;;4994302;28;20038;-81
2023/12/03 08:29:24;;;;;;;47.70;19.00;;;-3.50;72.40;;;;;;4998611;28;20041;-77
2023/12/03 08:31:49;;;;;;;51.17;23.95;;;-2.30;92.80;;;;;;4974548;28;20050;-75
2023/12/03 08:34:16;;;;;;;47.90;24.83;;;-2.10;92.00;;;;;;4974337;28;20110;-76
2023/12/03 08:36:42;;;;;;;42.08;22.88;;;-2.00;79.50;;;;;;4973264;28;20034;-80
2023/12/03 08:39:07;;;;;;;37.72;22.48;;;-1.90;79.70;;;;;;4974556;28;20070;-81
2023/12/03 08:41:36;;;;;;;32.80;19.83;;;-1.70;77.40;;;;;;4974906;28;20387;-78
2023/12/03 08:44:02;;;;;;;32.28;18.63;;;-1.50;68.50;;;;;;4973057;28;20476;-77
2023/12/03 08:46:29;;;;;;;27.70;16.27;;;-1.40;68.00;;;;;;4973006;28;20030;-77
2023/12/03 08:48:55;;;;;;;27.30;17.50;;;-1.40;62.50;;;;;;4973193;28;20031;-77
2023/12/03 08:51:21;;;;;;;26.15;16.35;;;-1.20;64.80;;;;;;4972995;28;20061;-78
2023/12/03 08:53:47;;;;;;;25.10;16.83;;;-1.00;64.20;;;;;;4974130;28;20058;-78
2023/12/03 08:56:12;;;;;;;25.10;15.77;;;-0.80;63.60;;;;;;4974089;28;20035;-82
2023/12/03 08:58:41;;;;;;;23.17;15.15;;;-0.60;62.30;;;;;;4973069;28;20034;-80
2023/12/03 09:01:07;;;;;;;23.73;15.40;;;-0.40;57.70;;;;;;4973010;28;20023;-81
2023/12/03 09:03:40;;;;;;;24.58;15.23;;;-0.20;57.20;;;;;;4972631;28;20019;-80
2023/12/03 09:06:06;;;;;;;22.42;15.27;;;0.00;56.20;;;;;;4973022;28;20038;-79
2023/12/03 09:08:31;;;;;;;22.92;15.90;;;0.20;55.30;;;;;;4972707;28;20031;-79
2023/12/03 09:10:57;;;;;;;22.08;15.15;;;0.30;54.50;;;;;;4972769;28;20030;-79
2023/12/03 09:13:24;;;;;;;25.52;16.45;;;0.40;53.30;;;;;;4959704;28;20027;-79
2023/12/03 09:15:51;;;;;;;22.65;15.98;;;0.60;53.00;;;;;;4974653;28;20043;-80
2023/12/03 09:18:17;;;;;;;24.60;16.35;;;0.70;51.80;;;;;;4973874;28;20042;-80
2023/12/03 09:20:42;;;;;;;26.38;16.48;;;0.80;51.10;;;;;;4974847;28;20085;-79
2023/12/03 09:23:08;;;;;;;28.05;17.17;;;0.80;51.20;;;;;;4972869;28;20027;-79
2023/12/03 09:25:33;;;;;;;22.75;15.95;;;1.00;51.20;;;;;;4972833;28;20078;-79
2023/12/03 09:27:59;;;;;;;22.13;14.25;;;1.10;50.90;;;;;;4972673;28;20038;-79
2023/12/03 09:30:25;;;;;;;27.88;16.02;;;1.20;50.00;;;;;;4973777;28;20033;-79
2023/12/03 09:32:50;;;;;;;27.55;16.50;;;1.30;50.00;;;;;;4972183;28;20055;-77
2023/12/03 09:35:16;;;;;;;24.83;16.73;;;1.50;50.10;;;;;;4972010;28;20054;-76
2023/12/03 09:37:41;;;;;;;24.80;16.38;;;1.70;49.60;;;;;;4971737;28;20511;-77
2023/12/03 09:40:07;;;;;;;25.15;16.73;;;2.00;48.80;;;;;;4972404;28;20050;-76
2023/12/03 09:42:36;;;;;;;24.42;17.88;;;2.20;48.70;;;;;;4974027;28;20027;-78
2023/12/03 09:45:04;;;;;;;23.95;16.15;;;2.40;48.60;;;;;;4975865;28;20139;-78
2023/12/03 09:47:37;;;;;;;29.63;18.40;;;2.60;48.70;;;;;;4979560;28;20113;-80
2023/12/03 09:50:04;;;;;;;31.73;21.77;;;2.80;48.30;;;;;;4979077;28;20022;-79
2023/12/03 09:52:34;;;;;;;23.02;16.15;;;3.00;48.10;;;;;;4975535;28;20479;-78
2023/12/03 09:55:00;;;;;;;22.02;14.90;;;3.30;48.20;;;;;;4976469;28;20027;-77
2023/12/03 09:57:30;;;;;;;25.65;16.73;;;3.50;47.90;;;;;;4976734;28;20110;-76
2023/12/03 10:00:04;;;;;;;23.88;16.42;;;3.80;46.40;;;;;;4976903;28;20050;-74
2023/12/03 10:02:30;;;;;;;27.85;17.75;;;3.90;44.80;;;;;;4976838;28;20069;-74
2023/12/03 10:04:57;;;;;;;24.08;15.30;;;4.00;44.40;;;;;;4976869;28;20169;-76
2023/12/03 10:07:26;;;;;;;21.20;14.65;;;4.00;44.90;;;;;;4975449;28;20026;-75
2023/12/03 10:09:53;;;;;;;20.75;13.85;;;4.20;44.70;;;;;;4976751;28;20050;-76
2023/12/03 10:12:22;;;;;;;19.48;13.95;;;4.40;44.00;;;;;;4975545;28;20105;-74
2023/12/03 10:14:48;;;;;;;19.65;13.52;;;4.70;43.60;;;;;;4975398;28;20069;-78
2023/12/03 10:17:20;;;;;;;19.10;12.93;;;5.00;43.40;;;;;;4976583;28;20035;-74
2023/12/03 10:19:46;;;;;;;18.90;12.98;;;5.20;42.60;;;;;;4975366;28;20022;-76
2023/12/03 10:22:12;;;;;;;20.10;13.43;;;5.40;42.10;;;;;;4976629;28;20030;-73
2023/12/03 10:25:05;;;;;;;20.75;14.38;;;5.60;42.00;;;;;;4976802;28;20023;-74
2023/12/03 10:27:31;;;;;;;19.77;13.93;;;5.90;40.90;;;;;;4973776;28;20070;-76
2023/12/03 10:29:56;;;;;;;17.73;12.63;;;6.00;41.10;;;;;;4976365;28;20049;-74
2023/12/03 10:32:22;;;;;;;15.45;12.00;;;6.30;40.40;;;;;;4988582;28;20468;-74
2023/12/03 10:34:50;;;;;;;19.08;13.73;;;6.60;39.90;;;;;;4995953;28;20404;-76
2023/12/03 10:37:15;;;;;;;15.80;11.82;;;6.80;39.80;;;;;;4994469;28;20037;-76
2023/12/03 10:39:41;;;;;;;15.80;12.63;;;7.10;39.60;;;;;;4995726;28;20026;-73
2023/12/03 10:42:08;;;;;;;14.73;12.00;;;7.40;39.00;;;;;;4995441;28;20030;-74
2023/12/03 10:44:37;;;;;;;15.45;12.32;;;7.60;38.60;;;;;;4994572;28;20034;-76
2023/12/03 10:47:03;;;;;;;18.60;13.00;;;7.90;37.90;;;;;;4995509;28;20486;-75
2023/12/03 10:49:31;;;;;;;17.08;14.07;;;8.10;37.30;;;;;;4995677;28;20022;-74
2023/12/03 10:51:58;;;;;;;27.13;19.92;;;8.20;36.70;;;;;;4995203;28;20088;-76
2023/12/03 10:54:25;;;;;;;25.25;19.60;;;8.40;36.70;;;;;;4994136;28;20078;-73
2023/12/03 10:56:54;;;;;;;24.10;18.63;;;8.50;36.60;;;;;;4993942;28;20129;-74
2023/12/03 10:59:23;;;;;;;24.15;17.08;;;8.70;36.00;;;;;;4994083;28;20414;-73
2023/12/03 11:01:54;;;;;;;24.23;19.65;;;8.80;35.90;;;;;;4993995;28;20023;-75
2023/12/03 11:04:34;;;;;;;23.85;18.27;;;9.10;35.90;;;;;;4977573;28;20085;-74
2023/12/03 11:07:03;;;;;;;20.60;15.57;;;9.60;35.40;;;;;;4993790;28;20113;-73
2023/12/03 11:09:29;;;;;;;18.73;15.00;;;10.00;33.70;;;;;;4993854;28;20028;-74
2023/12/03 11:11:55;;;;;;;21.23;16.88;;;10.50;33.10;;;;;;4994634;28;20026;-76
2023/12/03 11:14:22;;;;;;;19.15;15.60;;;10.90;31.70;;;;;;4997029;28;20038;-75
2023/12/03 11:17:15;;;;;;;19.15;15.13;;;11.20;31.20;;;;;;4993892;28;20034;-75
2023/12/03 11:19:45;;;;;;;18.85;16.05;;;11.90;30.30;;;;;;4994090;28;20034;-78
2023/12/03 11:22:56;;;;;;;19.02;15.63;;;12.50;28.90;;;;;;4994046;28;20027;-76
2023/12/03 11:25:51;;;;;;;19.33;15.85;;;13.30;28.00;;;;;;4994272;28;20054;-76
2023/12/03 11:28:17;;;;;;;19.52;14.55;;;14.00;25.50;;;;;;4994487;28;20053;-76
2023/12/03 11:30:43;;;;;;;15.35;12.40;;;14.80;24.60;;;;;;4994519;28;20034;-76
2023/12/03 11:33:20;;;;;;;15.98;12.88;;;15.60;23.20;;;;;;4995294;28;20427;-78
2023/12/03 11:35:47;;;;;;;16.00;12.63;;;16.30;22.20;;;;;;4980206;28;20043;-76
2023/12/03 11:38:21;;;;;;;20.90;15.88;;;17.30;21.00;;;;;;4978557;28;20110;-75
2023/12/03 11:40:47;;;;;;;19.83;16.05;;;17.90;19.20;;;;;;4973613;28;20026;-75
2023/12/03 11:43:23;;;;;;;19.85;15.88;;;18.30;18.70;;;;;;4974696;28;20138;-79
2023/12/03 11:45:51;;;;;;;19.38;15.45;;;18.70;18.40;;;;;;4973335;28;20019;-80
2023/12/03 11:48:17;;;;;;;19.70;17.27;;;19.40;17.70;;;;;;4973492;28;20378;-80
2023/12/03 11:50:45;;;;;;;20.75;16.33;;;20.10;16.90;;;;;;4974022;28;20027;-81
2023/12/03 11:53:15;;;;;;;14.60;11.05;;;20.70;16.40;;;;;;4974585;28;20027;-79
2023/12/03 11:55:45;;;;;;;12.10;10.10;;;21.30;15.00;;;;;;4973047;28;20034;-81
2023/12/03 11:58:11;;;;;;;11.57;9.98;;;21.50;14.50;;;;;;4973821;28;20070;-79
2023/12/03 12:00:38;;;;;;;10.73;9.18;;;22.10;14.10;;;;;;4974642;28;20061;-80
2023/12/03 12:03:04;;;;;;;8.60;7.70;;;22.50;13.30;;;;;;4974804;28;20081;-81
2023/12/03 12:05:31;;;;;;;11.18;8.02;;;23.20;12.90;;;;;;4974672;28;20019;-81
2023/12/03 12:08:04;;;;;;;8.10;7.30;;;24.00;12.20;;;;;;4972744;28;20114;-82
2023/12/03 12:10:34;;;;;;;6.80;6.03;;;24.60;11.60;;;;;;4974672;28;20037;-82
2023/12/03 12:13:03;;;;;;;9.35;6.90;;;25.20;10.70;;;;;;4973868;28;20085;-80
2023/12/03 12:15:30;;;;;;;7.82;6.80;;;25.80;9.90;;;;;;4974363;28;20479;-82
2023/12/03 12:17:55;;;;;;;7.18;6.45;;;26.30;9.60;;;;;;4974255;28;20023;-82
2023/12/03 12:20:25;;;;;;;6.07;5.47;;;26.70;9.00;;;;;;4973603;28;20088;-77
2023/12/03 12:22:52;;;;;;;5.70;5.20;;;27.00;8.80;;;;;;4974975;28;20058;-76
2023/12/03 12:25:17;;;;;;;5.90;5.30;;;27.30;8.20;;;;;;4973038;28;20034;-77
2023/12/03 12:27:46;;;;;;;6.80;6.15;;;27.70;7.80;;;;;;4975728;28;20030;-83
2023/12/03 12:30:14;;;;;;;6.00;5.40;;;28.20;7.60;;;;;;4975927;28;20047;-85